createdAt,value
2023-04-29T00:00:12.419Z,100029.19
2023-04-29T00:02:40.611Z,100019.66
2023-04-29T00:05:07.988Z,100065.28
2023-04-29T00:07:36.515Z,99942.44
2023-04-29T00:10:03.596Z,99942.34
2023-04-29T00:12:32.467Z,99529.22
2023-04-29T00:15:00.848Z,99654.88
2023-04-29T00:17:28.058Z,100073.31
2023-04-29T00:19:54.966Z,100049.69
2023-04-29T00:22:22.742Z,99852.19
2023-04-29T00:24:49.426Z,100060.22
2023-04-29T00:27:17.722Z,99835.06
2023-04-29T00:29:45.093Z,100047.94
2023-04-29T00:32:12.244Z,99829.81
2023-04-29T00:34:39.169Z,100039.47
2023-04-29T00:37:06.030Z,99989.38
2023-04-29T00:39:32.791Z,99838.59
2023-04-29T00:41:59.743Z,99881.91
2023-04-29T00:44:26.500Z,99951.09
2023-04-29T00:46:53.139Z,100030.25
2023-04-29T00:49:20.452Z,100053.25
2023-04-29T00:51:47.982Z,99430.63
2023-04-29T00:54:15.269Z,100026.94
2023-04-29T00:56:45.454Z,99864.34
2023-04-29T00:59:12.803Z,99818.94
2023-04-29T01:01:39.700Z,99907.72
2023-04-29T01:04:08.157Z,99968.88
2023-04-29T01:06:42.571Z,99834.41
2023-04-29T01:09:12.051Z,100013.44
2023-04-29T01:11:54.356Z,100012.59
2023-04-29T01:14:23.385Z,100032.84
2023-04-29T01:16:59.641Z,100000.88
2023-04-29T01:19:55.398Z,100001.78
2023-04-29T01:22:22.768Z,99830.78
2023-04-29T01:24:50.396Z,99523.19
2023-04-29T01:27:23.632Z,99984.91
2023-04-29T01:29:59.135Z,99882.00
2023-04-29T01:32:43.016Z,99888.03
2023-04-29T01:35:28.928Z,100014.84
2023-04-29T01:38:03.224Z,99979.72
2023-04-29T01:40:37.913Z,99969.22
2023-04-29T01:43:15.825Z,99910.63
2023-04-29T01:45:46.392Z,99754.53
2023-04-29T01:48:15.647Z,99878.59
2023-04-29T01:50:42.387Z,99477.91
2023-04-29T01:53:13.286Z,99688.38
2023-04-29T01:55:40.377Z,99860.50
2023-04-29T01:58:36.249Z,99954.88
2023-04-29T02:01:22.990Z,99874.84
2023-04-29T02:03:49.900Z,99826.31
2023-04-29T02:06:16.893Z,99758.25
2023-04-29T02:08:46.245Z,99772.69
2023-04-29T02:11:13.121Z,99839.47
2023-04-29T02:13:41.692Z,99889.22
2023-04-29T02:16:10.716Z,99760.69
2023-04-29T02:18:41.043Z,99740.09
2023-04-29T02:21:07.914Z,99479.50
2023-04-29T02:23:35.872Z,99776.56
2023-04-29T02:26:05.582Z,99843.34
2023-04-29T02:28:33.208Z,99610.53
2023-04-29T02:30:59.922Z,99810.16
2023-04-29T02:33:26.829Z,99916.44
2023-04-29T02:35:53.468Z,99849.53
2023-04-29T02:38:20.207Z,99916.38
2023-04-29T02:40:47.727Z,99788.72
2023-04-29T02:43:15.378Z,99564.81
2023-04-29T02:45:42.208Z,99681.81
2023-04-29T02:48:09.099Z,99827.91
2023-04-29T02:50:54.492Z,99885.84
2023-04-29T02:53:40.139Z,99393.41
2023-04-29T02:56:07.037Z,99878.81
2023-04-29T02:58:33.812Z,99703.25
2023-04-29T03:01:00.772Z,99871.16
2023-04-29T03:03:27.744Z,99710.84
2023-04-29T03:05:54.918Z,99566.09
2023-04-29T03:08:22.396Z,99570.34
2023-04-29T03:10:49.206Z,99568.34
2023-04-29T03:13:16.090Z,99480.31
2023-04-29T03:15:44.704Z,99757.06
2023-04-29T03:18:13.387Z,99419.63
2023-04-29T03:20:40.374Z,99639.38
2023-04-29T03:23:07.195Z,99846.81
2023-04-29T03:25:34.116Z,99379.53
2023-04-29T03:28:00.980Z,99706.81
2023-04-29T03:30:27.781Z,99808.19
2023-04-29T03:32:57.508Z,99730.66
2023-04-29T03:35:25.565Z,99651.94
2023-04-29T03:38:15.099Z,99665.59
2023-04-29T03:40:42.786Z,99771.13
2023-04-29T03:43:09.576Z,99424.84
2023-04-29T03:45:37.070Z,99802.28
2023-04-29T03:48:06.247Z,99799.53
2023-04-29T03:50:33.081Z,99609.63
2023-04-29T03:52:59.891Z,99515.81
2023-04-29T03:55:27.185Z,99731.63
2023-04-29T03:57:53.966Z,99751.13
2023-04-29T04:00:21.005Z,99775.09
2023-04-29T04:02:53.152Z,99753.78
2023-04-29T04:05:21.075Z,99646.75
2023-04-29T04:07:53.228Z,99600.16
2023-04-29T04:10:46.778Z,99693.41
2023-04-29T04:13:37.265Z,99423.78
2023-04-29T04:16:05.178Z,99547.03
2023-04-29T04:18:31.911Z,99649.03
2023-04-29T04:20:58.850Z,99684.72
2023-04-29T04:23:26.394Z,99694.34
2023-04-29T04:25:54.440Z,99763.41
2023-04-29T04:28:44.176Z,99720.22
2023-04-29T04:31:17.696Z,99721.41
2023-04-29T04:33:45.521Z,99578.13
2023-04-29T04:36:13.097Z,99725.09
2023-04-29T04:38:39.883Z,99689.03
2023-04-29T04:41:10.886Z,99599.25
2023-04-29T04:43:41.011Z,99656.88
2023-04-29T04:46:16.879Z,99694.22
2023-04-29T04:49:04.099Z,99537.63
2023-04-29T04:51:33.459Z,99638.38
2023-04-29T04:54:00.205Z,99574.56
2023-04-29T04:56:29.332Z,99605.91
2023-04-29T04:58:56.491Z,99592.38
2023-04-29T05:01:24.371Z,99553.06
2023-04-29T05:03:51.389Z,99607.56
2023-04-29T05:06:18.362Z,99540.47
2023-04-29T05:08:47.115Z,99669.69
2023-04-29T05:11:18.476Z,99619.56
2023-04-29T05:13:49.788Z,99641.41
2023-04-29T05:16:18.199Z,99599.06
2023-04-29T05:18:47.123Z,99665.75
2023-04-29T05:21:17.098Z,99534.28
2023-04-29T05:23:44.696Z,99664.13
2023-04-29T05:26:12.424Z,99638.97
2023-04-29T05:28:39.905Z,99560.41
2023-04-29T05:31:08.333Z,99600.59
2023-04-29T05:33:35.885Z,99542.81
2023-04-29T05:36:02.917Z,99570.44
2023-04-29T05:38:29.848Z,99663.53
2023-04-29T05:41:04.517Z,99641.47
2023-04-29T05:43:43.659Z,99639.44
2023-04-29T05:46:13.493Z,99637.31
2023-04-29T05:48:40.503Z,99536.00
2023-04-29T05:51:07.239Z,99631.31
2023-04-29T05:53:35.854Z,99553.53
2023-04-29T05:56:06.561Z,99504.31
2023-04-29T05:58:33.412Z,99508.75
2023-04-29T06:01:00.331Z,99541.94
2023-04-29T06:03:28.360Z,99481.22
2023-04-29T06:06:16.410Z,99631.47
2023-04-29T06:09:03.165Z,99557.72
2023-04-29T06:11:32.767Z,99500.13
2023-04-29T06:14:01.633Z,99533.41
2023-04-29T06:16:28.948Z,99582.59
2023-04-29T06:18:55.990Z,99586.72
2023-04-29T06:21:22.750Z,99255.69
2023-04-29T06:23:49.443Z,99568.41
2023-04-29T06:26:17.538Z,99445.59
2023-04-29T06:28:44.627Z,99574.31
2023-04-29T06:31:11.801Z,99296.50
2023-04-29T06:33:38.983Z,99333.56
2023-04-29T06:36:06.247Z,99560.31
2023-04-29T06:38:35.655Z,99263.22
2023-04-29T06:41:21.687Z,99417.34
2023-04-29T06:44:00.448Z,99559.94
2023-04-29T06:46:36.408Z,99552.66
2023-04-29T06:49:07.716Z,99590.19
2023-04-29T06:51:35.751Z,99547.69
2023-04-29T06:54:02.679Z,99266.75
2023-04-29T06:56:29.636Z,99470.72
2023-04-29T06:58:56.339Z,99365.50
2023-04-29T07:01:23.631Z,99528.44
2023-04-29T07:03:51.437Z,99457.81
2023-04-29T07:06:19.300Z,99526.66
2023-04-29T07:08:46.124Z,99523.25
2023-04-29T07:11:15.368Z,99618.28
2023-04-29T07:13:42.046Z,99532.69
2023-04-29T07:16:20.581Z,99514.38
2023-04-29T07:18:49.459Z,99502.88
2023-04-29T07:21:16.245Z,99348.63
2023-04-29T07:23:43.403Z,99294.31
2023-04-29T07:26:14.315Z,99507.41
2023-04-29T07:28:47.262Z,99506.44
2023-04-29T07:31:17.931Z,99374.72
2023-04-29T07:33:46.152Z,99473.72
2023-04-29T07:36:13.276Z,99392.91
2023-04-29T07:38:40.769Z,99499.72
2023-04-29T07:41:07.877Z,99457.47
2023-04-29T07:43:35.438Z,99292.72
2023-04-29T07:46:02.276Z,99479.84
2023-04-29T07:48:29.555Z,99225.75
2023-04-29T07:50:58.463Z,99405.56
2023-04-29T07:53:31.758Z,99414.97
2023-04-29T07:55:58.704Z,99466.75
2023-04-29T07:58:32.864Z,98521.38
2023-04-29T08:01:11.731Z,99334.84
2023-04-29T08:03:41.489Z,99329.00
2023-04-29T08:06:09.791Z,99472.00
2023-04-29T08:08:36.716Z,99359.25
2023-04-29T08:11:03.905Z,99346.94
2023-04-29T08:13:30.890Z,99454.38
2023-04-29T08:15:57.945Z,99454.78
2023-04-29T08:18:25.168Z,99376.53
2023-04-29T08:20:52.069Z,99444.00
2023-04-29T08:23:18.804Z,99389.25
2023-04-29T08:25:45.861Z,99422.25
2023-04-29T08:28:13.044Z,99419.50
2023-04-29T08:30:40.958Z,99406.09
2023-04-29T08:33:08.404Z,99387.22
2023-04-29T08:35:37.678Z,99253.50
2023-04-29T08:38:09.294Z,99389.38
2023-04-29T08:40:41.453Z,99417.69
2023-04-29T08:43:10.308Z,99407.69
2023-04-29T08:45:37.563Z,99401.91
2023-04-29T08:48:07.796Z,99343.94
2023-04-29T08:50:41.876Z,99402.03
2023-04-29T08:53:09.690Z,99328.75
2023-04-29T08:55:41.526Z,99397.50
2023-04-29T08:58:09.201Z,99398.88
2023-04-29T09:00:36.745Z,99391.88
2023-04-29T09:03:27.123Z,99366.56
2023-04-29T09:05:56.449Z,99327.09
2023-04-29T09:08:24.347Z,99299.06
2023-04-29T09:10:55.142Z,99363.97
2023-04-29T09:13:28.724Z,99375.81
2023-04-29T09:15:56.124Z,99272.34
2023-04-29T09:19:01.699Z,99392.94
2023-04-29T09:21:32.381Z,99282.75
2023-04-29T09:24:01.357Z,99334.25
2023-04-29T09:26:43.610Z,99394.28
2023-04-29T09:29:14.036Z,99399.91
2023-04-29T09:31:42.952Z,99356.13
2023-04-29T09:34:14.835Z,99388.28
2023-04-29T09:36:41.853Z,99377.72
2023-04-29T09:39:13.417Z,99375.13
2023-04-29T09:41:41.571Z,99020.19
2023-04-29T09:44:09.831Z,99258.25
2023-04-29T09:46:37.529Z,99377.25
2023-04-29T09:49:23.393Z,99373.44
2023-04-29T09:51:58.409Z,99396.56
2023-04-29T09:54:30.645Z,99211.66
2023-04-29T09:56:59.445Z,99346.97
2023-04-29T09:59:26.925Z,99223.00
2023-04-29T10:01:56.635Z,99326.88
2023-04-29T10:04:26.321Z,99190.63
2023-04-29T10:06:55.280Z,99279.16
2023-04-29T10:09:23.585Z,99006.28
2023-04-29T10:11:52.139Z,99257.59
2023-04-29T10:14:20.763Z,99329.97
2023-04-29T10:16:50.883Z,99380.50
2023-04-29T10:19:26.379Z,99372.13
2023-04-29T10:21:55.880Z,99272.38
2023-04-29T10:24:24.055Z,99331.03
2023-04-29T10:26:52.745Z,99323.47
2023-04-29T10:29:21.063Z,99125.59
2023-04-29T10:31:49.866Z,99373.91
2023-04-29T10:34:17.906Z,99382.63
2023-04-29T10:36:46.137Z,99317.63
2023-04-29T10:39:21.008Z,99401.72
2023-04-29T10:41:47.834Z,99399.50
2023-04-29T10:44:14.995Z,99281.47
2023-04-29T10:46:41.762Z,99193.91
2023-04-29T10:49:10.926Z,99132.47
2023-04-29T10:51:45.590Z,99420.00
2023-04-29T10:54:16.719Z,99407.69
2023-04-29T10:56:51.970Z,99405.88
2023-04-29T10:59:28.458Z,99288.06
2023-04-29T11:01:55.321Z,99376.41
2023-04-29T11:04:23.069Z,99337.88
2023-04-29T11:06:53.099Z,99384.31
2023-04-29T11:09:30.986Z,99384.50
2023-04-29T11:11:59.153Z,99379.22
2023-04-29T11:14:50.336Z,99401.50
2023-04-29T11:17:20.447Z,99152.84
2023-04-29T11:19:50.767Z,99380.91
2023-04-29T11:22:23.337Z,99384.19
2023-04-29T11:24:54.443Z,99405.31
2023-04-29T11:27:25.534Z,99425.31
2023-04-29T11:29:58.210Z,99238.97
2023-04-29T11:32:29.754Z,99446.66
2023-04-29T11:35:16.568Z,99341.59
2023-04-29T11:37:45.807Z,99231.59
2023-04-29T11:40:14.112Z,99467.78
2023-04-29T11:42:43.870Z,99470.78
2023-04-29T11:45:18.118Z,99435.41
2023-04-29T11:47:46.663Z,99464.03
2023-04-29T11:50:19.589Z,99396.94
2023-04-29T11:52:54.939Z,99487.69
2023-04-29T11:55:21.869Z,99265.09
2023-04-29T11:57:52.448Z,99479.31
2023-04-29T12:00:20.880Z,99546.88
2023-04-29T12:02:54.669Z,99564.09
2023-04-29T12:05:21.579Z,99526.66
2023-04-29T12:07:51.225Z,99548.94
2023-04-29T12:10:18.232Z,99117.94
2023-04-29T12:12:46.325Z,99626.84
2023-04-29T12:15:13.492Z,99456.63
2023-04-29T12:17:41.002Z,99637.91
2023-04-29T12:20:12.727Z,99325.38
2023-04-29T12:22:39.749Z,99496.97
2023-04-29T12:25:08.031Z,99624.50
2023-04-29T12:27:36.515Z,99630.88
2023-04-29T12:30:08.247Z,99568.03
2023-04-29T12:32:35.123Z,99568.03
2023-04-29T12:35:01.805Z,99579.78
2023-04-29T12:37:28.585Z,99565.28
2023-04-29T12:39:55.884Z,99492.56
2023-04-29T12:42:22.633Z,99567.28
2023-04-29T12:44:49.564Z,99493.97
2023-04-29T12:47:17.580Z,99398.38
2023-04-29T12:49:46.490Z,99480.09
2023-04-29T12:52:13.763Z,99539.53
2023-04-29T12:54:44.279Z,99513.41
2023-04-29T12:57:12.456Z,99194.38
2023-04-29T12:59:41.360Z,99403.72
2023-04-29T13:02:08.479Z,99558.03
2023-04-29T13:04:35.869Z,99594.19
2023-04-29T13:07:04.463Z,99505.06
2023-04-29T13:09:31.500Z,99561.13
2023-04-29T13:11:59.602Z,99603.28
2023-04-29T13:14:30.025Z,98709.69
2023-04-29T13:16:59.912Z,99619.88
2023-04-29T13:19:46.956Z,99476.97
2023-04-29T13:22:15.555Z,99460.28
2023-04-29T13:24:42.496Z,99634.34
2023-04-29T13:27:10.307Z,99424.63
2023-04-29T13:29:41.394Z,99178.34
2023-04-29T13:32:08.926Z,99612.59
2023-04-29T13:34:35.992Z,99648.81
2023-04-29T13:37:02.858Z,99572.34
2023-04-29T13:39:30.418Z,99673.34
2023-04-29T13:41:59.156Z,99586.59
2023-04-29T13:44:33.213Z,99536.66
2023-04-29T13:47:07.530Z,99694.41
2023-04-29T13:50:10.000Z,99423.34
2023-04-29T13:55:14.818Z,99266.69
2023-04-29T13:58:31.085Z,99425.50
2023-04-29T14:01:01.417Z,99386.84
2023-04-29T14:03:15.419Z,99690.44
2023-04-29T14:05:42.493Z,99136.63
2023-04-29T14:08:09.535Z,99678.53
2023-04-29T14:10:37.147Z,99277.25
2023-04-29T14:13:03.935Z,99486.66
2023-04-29T14:15:30.908Z,99688.28
2023-04-29T14:17:57.673Z,99629.13
2023-04-29T14:20:24.470Z,99553.66
2023-04-29T14:22:51.240Z,99645.88
2023-04-29T14:25:18.501Z,99704.22
2023-04-29T14:27:45.545Z,99680.69
2023-04-29T14:30:12.765Z,99555.34
2023-04-29T14:32:40.447Z,99658.09
2023-04-29T14:35:09.569Z,99708.50
2023-04-29T14:37:45.714Z,99566.72
2023-04-29T14:40:12.849Z,99659.34
2023-04-29T14:42:39.553Z,99345.44
2023-04-29T14:45:06.961Z,99623.09
2023-04-29T14:47:34.452Z,99725.03
2023-04-29T14:50:04.145Z,99730.63
2023-04-29T14:52:30.927Z,99604.75
2023-04-29T14:54:58.849Z,99520.31
2023-04-29T14:57:25.619Z,99609.47
2023-04-29T14:59:53.422Z,99831.25
2023-04-29T15:02:20.134Z,99755.19
2023-04-29T15:04:46.997Z,99147.41
2023-04-29T15:07:13.884Z,99590.63
2023-04-29T15:09:43.128Z,99234.13
2023-04-29T15:12:10.415Z,99462.03
2023-04-29T15:14:37.339Z,99396.59
2023-04-29T15:17:07.740Z,99177.25
2023-04-29T15:19:35.560Z,99259.31
2023-04-29T15:22:02.266Z,99240.94
2023-04-29T15:27:16.373Z,99759.34
2023-04-29T15:29:43.185Z,98964.63
2023-04-29T15:32:11.601Z,99591.72
2023-04-29T15:34:38.496Z,99753.72
2023-04-29T15:37:06.779Z,99115.66
2023-04-29T15:39:33.697Z,99285.47
2023-04-29T15:42:00.670Z,99030.97
2023-04-29T15:44:27.402Z,99883.94
2023-04-29T15:46:55.036Z,99762.47
2023-04-29T15:49:24.625Z,99653.75
2023-04-29T15:51:52.257Z,99614.66
2023-04-29T15:54:19.085Z,99743.66
2023-04-29T15:56:46.703Z,99773.44
2023-04-29T15:59:15.792Z,99778.91
2023-04-29T16:01:42.702Z,99664.88
2023-04-29T16:04:09.681Z,99720.31
2023-04-29T16:06:36.934Z,99545.72
2023-04-29T16:09:05.032Z,99698.28
2023-04-29T16:11:33.734Z,99774.31
2023-04-29T16:14:00.520Z,99599.97
2023-04-29T16:16:27.366Z,99598.34
2023-04-29T16:18:54.715Z,99794.88
2023-04-29T16:21:21.687Z,99729.00
2023-04-29T16:23:48.458Z,99469.69
2023-04-29T16:26:15.265Z,99735.59
2023-04-29T16:28:41.990Z,99790.53
2023-04-29T16:31:10.113Z,99737.09
2023-04-29T16:33:36.812Z,99644.03
2023-04-29T16:36:04.014Z,99704.28
2023-04-29T16:38:32.547Z,99771.66
2023-04-29T16:40:59.390Z,99758.63
2023-04-29T16:43:26.069Z,99798.16
2023-04-29T16:45:52.940Z,99761.09
2023-04-29T16:48:19.646Z,99582.16
2023-04-29T16:50:49.180Z,99786.63
2023-04-29T16:53:18.279Z,99427.78
2023-04-29T16:55:46.258Z,99726.13
2023-04-29T16:58:13.205Z,99654.41
2023-04-29T17:00:42.192Z,99695.94
2023-04-29T17:03:09.815Z,99742.47
2023-04-29T17:05:37.329Z,99802.97
2023-04-29T17:08:04.531Z,99759.97
2023-04-29T17:10:31.435Z,99814.38
2023-04-29T17:12:59.341Z,99434.16
2023-04-29T17:15:26.503Z,99707.31
2023-04-29T17:17:55.037Z,99670.16
2023-04-29T17:20:21.976Z,99857.88
2023-04-29T17:22:48.866Z,99571.41
2023-04-29T17:25:16.214Z,99812.28
2023-04-29T17:27:45.133Z,99826.41
2023-04-29T17:30:12.541Z,99663.25
2023-04-29T17:32:39.572Z,99657.38
2023-04-29T17:35:08.169Z,99658.09
2023-04-29T17:37:35.548Z,99842.94
2023-04-29T17:40:03.084Z,99803.91
2023-04-29T17:42:32.839Z,99850.72
2023-04-29T17:44:59.692Z,99683.06
2023-04-29T17:47:26.611Z,99714.38
2023-04-29T17:49:53.482Z,99834.84
2023-04-29T17:52:21.501Z,99851.56
2023-04-29T17:54:48.876Z,99653.31
2023-04-29T17:57:15.780Z,99618.63
2023-04-29T17:59:42.463Z,99764.41
2023-04-29T18:02:09.211Z,99615.44
2023-04-29T18:04:37.380Z,99870.72
2023-04-29T18:07:04.284Z,99887.16
2023-04-29T18:09:31.058Z,99653.72
2023-04-29T18:11:57.903Z,99782.44
2023-04-29T18:14:24.813Z,99895.63
2023-04-29T18:16:51.957Z,99778.56
2023-04-29T18:19:18.750Z,99705.03
2023-04-29T18:21:45.448Z,99620.88
2023-04-29T18:24:12.776Z,99836.16
2023-04-29T18:26:39.392Z,99898.25
2023-04-29T18:29:06.241Z,99820.56
2023-04-29T18:31:33.130Z,99796.16
2023-04-29T18:33:59.943Z,99852.75
2023-04-29T18:36:35.140Z,99886.66
2023-04-29T18:39:03.213Z,99567.91
2023-04-29T18:41:30.049Z,99792.16
2023-04-29T18:43:56.773Z,99709.91
2023-04-29T18:46:24.433Z,99729.69
2023-04-29T18:48:51.390Z,99856.19
2023-04-29T18:51:18.148Z,99864.00
2023-04-29T18:53:44.972Z,99869.44
2023-04-29T18:56:11.967Z,99912.59
2023-04-29T18:58:40.289Z,99840.78
2023-04-29T19:01:16.103Z,99929.34
2023-04-29T19:03:42.912Z,99875.34
2023-04-29T19:06:09.606Z,99705.53
2023-04-29T19:08:39.051Z,99849.59
2023-04-29T19:11:05.862Z,99782.63
2023-04-29T19:13:32.577Z,99949.66
2023-04-29T19:15:59.727Z,99578.72
2023-04-29T19:18:33.116Z,99907.44
2023-04-29T19:21:00.430Z,99754.16
2023-04-29T19:23:27.354Z,99606.09
2023-04-29T19:25:54.327Z,99888.75
2023-04-29T19:28:21.090Z,99832.69
2023-04-29T19:30:48.025Z,99881.53
2023-04-29T19:33:14.952Z,99933.47
2023-04-29T19:35:41.668Z,99900.16
2023-04-29T19:38:08.516Z,99982.03
2023-04-29T19:40:40.965Z,99938.84
2023-04-29T19:43:07.752Z,99724.09
2023-04-29T19:45:35.410Z,99926.63
2023-04-29T19:48:02.919Z,99992.13
2023-04-29T19:50:29.787Z,99902.47
2023-04-29T19:52:56.707Z,99871.59
2023-04-29T19:55:23.463Z,99866.31
2023-04-29T19:57:51.365Z,99812.31
2023-04-29T20:00:18.572Z,99999.59
2023-04-29T20:02:53.629Z,100008.28
2023-04-29T20:05:20.578Z,100014.84
2023-04-29T20:07:49.806Z,100001.19
2023-04-29T20:10:16.630Z,99903.72
2023-04-29T20:12:43.357Z,99708.41
2023-04-29T20:15:10.366Z,99945.38
2023-04-29T20:17:37.640Z,99957.84
2023-04-29T20:20:05.542Z,100004.63
2023-04-29T20:22:32.265Z,100027.75
2023-04-29T20:25:05.236Z,100031.97
2023-04-29T20:27:35.416Z,100032.88
2023-04-29T20:30:02.540Z,99830.72
2023-04-29T20:32:30.804Z,99852.31
2023-04-29T20:34:57.728Z,99892.31
2023-04-29T20:37:25.260Z,99628.03
2023-04-29T20:39:52.252Z,99926.59
2023-04-29T20:42:19.152Z,99927.72
2023-04-29T20:44:46.258Z,99902.91
2023-04-29T20:47:13.161Z,100025.34
2023-04-29T20:49:40.085Z,99870.69
2023-04-29T20:52:09.880Z,99901.56
2023-04-29T20:54:36.808Z,100036.34
2023-04-29T20:57:05.934Z,100085.88
2023-04-29T20:59:34.018Z,100042.50
2023-04-29T21:02:00.848Z,99830.53
2023-04-29T21:04:35.425Z,100033.47
2023-04-29T21:07:03.798Z,100266.84
2023-04-29T21:09:30.506Z,99779.16
2023-04-29T21:11:59.427Z,99560.91
2023-04-29T21:14:27.091Z,99826.63
2023-04-29T21:16:55.195Z,100014.81
2023-04-29T21:19:21.955Z,99904.41
2023-04-29T21:21:49.586Z,100064.31
2023-04-29T21:24:16.223Z,99981.25
2023-04-29T21:26:45.249Z,100123.94
2023-04-29T21:29:12.081Z,99992.22
2023-04-29T21:31:39.114Z,100105.09
2023-04-29T21:34:06.103Z,100047.72
2023-04-29T21:36:33.153Z,100037.88
2023-04-29T21:38:59.811Z,99898.72
2023-04-29T21:41:31.917Z,100050.00
2023-04-29T21:44:00.399Z,99953.72
2023-04-29T21:46:28.384Z,100111.81
2023-04-29T21:48:57.505Z,100059.63
2023-04-29T21:51:24.648Z,100036.81
2023-04-29T21:53:51.429Z,100001.97
2023-04-29T21:56:18.786Z,100000.53
2023-04-29T21:58:48.882Z,99928.25
2023-04-29T22:01:26.905Z,100070.50
2023-04-29T22:03:55.093Z,100065.41
2023-04-29T22:06:22.405Z,99989.31
2023-04-29T22:08:49.345Z,99970.38
2023-04-29T22:11:16.081Z,100024.09
2023-04-29T22:13:45.088Z,99461.91
2023-04-29T22:16:12.305Z,99897.09
2023-04-29T22:18:39.185Z,100069.38
2023-04-29T22:21:06.757Z,99933.56
2023-04-29T22:23:33.455Z,100021.16
2023-04-29T22:26:00.066Z,100082.91
2023-04-29T22:28:26.948Z,99983.00
2023-04-29T22:30:53.772Z,99897.03
2023-04-29T22:33:20.497Z,99785.97
2023-04-29T22:35:47.217Z,99902.38
2023-04-29T22:38:14.073Z,99975.53
2023-04-29T22:40:41.082Z,99983.19
2023-04-29T22:43:07.878Z,99986.53
2023-04-29T22:45:34.631Z,99905.88
2023-04-29T22:48:01.499Z,100121.41
2023-04-29T22:50:28.157Z,99979.50
2023-04-29T22:52:54.851Z,100114.41
2023-04-29T22:55:21.837Z,99970.31
2023-04-29T22:57:52.929Z,100111.88
2023-04-29T23:00:19.867Z,100059.59
2023-04-29T23:02:46.602Z,99705.25
2023-04-29T23:05:13.350Z,100049.44
2023-04-29T23:07:40.038Z,99935.09
2023-04-29T23:10:07.112Z,100131.47
2023-04-29T23:12:33.847Z,99941.19
2023-04-29T23:15:00.615Z,99939.94
2023-04-29T23:17:27.441Z,99871.31
2023-04-29T23:19:54.435Z,99972.41
2023-04-29T23:22:21.358Z,100004.72
2023-04-29T23:24:48.205Z,100022.97
2023-04-29T23:27:14.959Z,99723.66
2023-04-29T23:29:41.797Z,100132.69
2023-04-29T23:32:08.729Z,99997.31
2023-04-29T23:34:35.576Z,100146.31
2023-04-29T23:37:02.243Z,100125.47
2023-04-29T23:39:28.964Z,100135.69
2023-04-29T23:41:56.290Z,100064.22
2023-04-29T23:44:23.284Z,100156.97
2023-04-29T23:46:49.898Z,100138.94
2023-04-29T23:49:16.631Z,100153.00
2023-04-29T23:51:43.278Z,100138.66
2023-04-29T23:54:10.016Z,99998.38
2023-04-29T23:56:36.731Z,99830.09
2023-04-29T23:59:03.564Z,100147.31
